sensor_id;sensor_type;location;lat;lon;timestamp;temperature;humidity
74968;SHT30;63523;51.880;12.630;2023-02-11T00:00:55;2.02;82.07
74968;SHT30;63523;51.880;12.630;2023-02-11T00:03:21;2.04;82.30
74968;SHT30;63523;51.880;12.630;2023-02-11T00:06:00;2.11;81.80
74968;SHT30;63523;51.880;12.630;2023-02-11T00:08:26;2.10;81.98
74968;SHT30;63523;51.880;12.630;2023-02-11T00:10:54;2.14;81.70
74968;SHT30;63523;51.880;12.630;2023-02-11T00:13:20;2.13;81.97
74968;SHT30;63523;51.880;12.630;2023-02-11T00:15:46;2.10;82.05
74968;SHT30;63523;51.880;12.630;2023-02-11T00:18:11;2.10;82.24
74968;SHT30;63523;51.880;12.630;2023-02-11T00:20:41;2.09;82.07
74968;SHT30;63523;51.880;12.630;2023-02-11T00:23:06;2.09;82.04
74968;SHT30;63523;51.880;12.630;2023-02-11T00:25:32;2.11;82.06
74968;SHT30;63523;51.880;12.630;2023-02-11T00:27:57;2.13;81.98
74968;SHT30;63523;51.880;12.630;2023-02-11T00:30:23;2.14;81.90
74968;SHT30;63523;51.880;12.630;2023-02-11T00:32:49;2.16;81.98
74968;SHT30;63523;51.880;12.630;2023-02-11T00:35:15;2.14;82.02
74968;SHT30;63523;51.880;12.630;2023-02-11T00:37:40;2.23;81.64
74968;SHT30;63523;51.880;12.630;2023-02-11T00:40:06;2.27;81.81
74968;SHT30;63523;51.880;12.630;2023-02-11T00:42:32;2.25;81.80
74968;SHT30;63523;51.880;12.630;2023-02-11T00:45:00;2.24;81.57
74968;SHT30;63523;51.880;12.630;2023-02-11T00:47:26;2.30;81.65
74968;SHT30;63523;51.880;12.630;2023-02-11T00:49:51;2.33;81.86
74968;SHT30;63523;51.880;12.630;2023-02-11T00:52:17;2.31;81.95
74968;SHT30;63523;51.880;12.630;2023-02-11T00:54:42;2.42;81.50
74968;SHT30;63523;51.880;12.630;2023-02-11T00:57:08;2.45;81.45
74968;SHT30;63523;51.880;12.630;2023-02-11T00:59:33;2.45;81.56
74968;SHT30;63523;51.880;12.630;2023-02-11T01:01:59;2.53;81.10
74968;SHT30;63523;51.880;12.630;2023-02-11T01:04:25;2.55;81.11
74968;SHT30;63523;51.880;12.630;2023-02-11T01:06:53;2.53;81.28
74968;SHT30;63523;51.880;12.630;2023-02-11T01:09:19;2.58;81.10
74968;SHT30;63523;51.880;12.630;2023-02-11T01:11:45;2.55;81.21
74968;SHT30;63523;51.880;12.630;2023-02-11T01:14:11;2.61;80.93
74968;SHT30;63523;51.880;12.630;2023-02-11T01:16:36;2.59;80.96
74968;SHT30;63523;51.880;12.630;2023-02-11T01:19:02;2.59;81.00
74968;SHT30;63523;51.880;12.630;2023-02-11T01:21:27;2.61;81.09
74968;SHT30;63523;51.880;12.630;2023-02-11T01:23:53;2.63;81.26
74968;SHT30;63523;51.880;12.630;2023-02-11T01:26:18;2.68;81.40
74968;SHT30;63523;51.880;12.630;2023-02-11T01:28:44;2.75;80.86
74968;SHT30;63523;51.880;12.630;2023-02-11T01:31:09;2.87;80.75
74968;SHT30;63523;51.880;12.630;2023-02-11T01:33:35;2.99;80.22
74968;SHT30;63523;51.880;12.630;2023-02-11T01:36:02;3.11;79.57
74968;SHT30;63523;51.880;12.630;2023-02-11T01:38:28;3.13;79.56
74968;SHT30;63523;51.880;12.630;2023-02-11T01:40:57;3.20;79.50
74968;SHT30;63523;51.880;12.630;2023-02-11T01:43:25;3.18;79.33
74968;SHT30;63523;51.880;12.630;2023-02-11T01:48:32;3.24;79.16
74968;SHT30;63523;51.880;12.630;2023-02-11T01:51:21;3.31;78.95
74968;SHT30;63523;51.880;12.630;2023-02-11T01:53:49;3.25;79.09
74968;SHT30;63523;51.880;12.630;2023-02-11T01:56:36;3.36;78.59
74968;SHT30;63523;51.880;12.630;2023-02-11T01:59:27;3.25;78.96
74968;SHT30;63523;51.880;12.630;2023-02-11T02:02:00;3.28;79.03
74968;SHT30;63523;51.880;12.630;2023-02-11T02:04:32;3.31;78.78
74968;SHT30;63523;51.880;12.630;2023-02-11T02:07:05;3.35;78.76
74968;SHT30;63523;51.880;12.630;2023-02-11T02:09:38;3.31;78.87
74968;SHT30;63523;51.880;12.630;2023-02-11T02:12:04;3.32;78.97
74968;SHT30;63523;51.880;12.630;2023-02-11T02:14:30;3.39;78.80
74968;SHT30;63523;51.880;12.630;2023-02-11T02:16:55;3.36;79.03
74968;SHT30;63523;51.880;12.630;2023-02-11T02:28:41;3.45;79.05
74968;SHT30;63523;51.880;12.630;2023-02-11T02:31:25;3.41;79.01
74968;SHT30;63523;51.880;12.630;2023-02-11T02:34:05;3.52;78.40
74968;SHT30;63523;51.880;12.630;2023-02-11T02:36:40;3.56;78.34
74968;SHT30;63523;51.880;12.630;2023-02-11T02:39:16;3.54;78.53
74968;SHT30;63523;51.880;12.630;2023-02-11T02:41:42;3.56;78.56
74968;SHT30;63523;51.880;12.630;2023-02-11T02:44:09;3.52;78.56
74968;SHT30;63523;51.880;12.630;2023-02-11T02:46:35;3.56;78.63
74968;SHT30;63523;51.880;12.630;2023-02-11T02:49:01;3.59;78.68
74968;SHT30;63523;51.880;12.630;2023-02-11T03:00:51;3.65;78.49
74968;SHT30;63523;51.880;12.630;2023-02-11T03:05:56;3.87;77.69
74968;SHT30;63523;51.880;12.630;2023-02-11T03:10:53;3.90;77.61
74968;SHT30;63523;51.880;12.630;2023-02-11T03:13:23;4.06;77.22
74968;SHT30;63523;51.880;12.630;2023-02-11T03:15:53;4.00;76.92
74968;SHT30;63523;51.880;12.630;2023-02-11T03:18:22;3.94;77.42
74968;SHT30;63523;51.880;12.630;2023-02-11T03:20:51;4.01;77.29
74968;SHT30;63523;51.880;12.630;2023-02-11T03:23:27;4.07;77.08
74968;SHT30;63523;51.880;12.630;2023-02-11T03:26:17;4.03;77.19
74968;SHT30;63523;51.880;12.630;2023-02-11T03:28:54;4.03;77.25
74968;SHT30;63523;51.880;12.630;2023-02-11T03:31:50;4.13;76.84
74968;SHT30;63523;51.880;12.630;2023-02-11T03:34:32;4.06;77.14
74968;SHT30;63523;51.880;12.630;2023-02-11T03:37:15;4.01;77.38
74968;SHT30;63523;51.880;12.630;2023-02-11T03:39:47;3.97;77.35
74968;SHT30;63523;51.880;12.630;2023-02-11T03:42:15;3.97;77.63
74968;SHT30;63523;51.880;12.630;2023-02-11T03:45:04;3.89;78.01
74968;SHT30;63523;51.880;12.630;2023-02-11T03:47:33;3.97;77.65
74968;SHT30;63523;51.880;12.630;2023-02-11T03:50:02;4.03;77.39
74968;SHT30;63523;51.880;12.630;2023-02-11T03:52:29;4.00;77.59
74968;SHT30;63523;51.880;12.630;2023-02-11T03:54:56;4.01;77.35
74968;SHT30;63523;51.880;12.630;2023-02-11T03:57:24;4.11;77.24
74968;SHT30;63523;51.880;12.630;2023-02-11T03:59:55;4.11;77.07
74968;SHT30;63523;51.880;12.630;2023-02-11T04:02:24;4.10;77.30
74968;SHT30;63523;51.880;12.630;2023-02-11T04:04:50;4.04;77.52
74968;SHT30;63523;51.880;12.630;2023-02-11T04:07:16;4.06;77.54
74968;SHT30;63523;51.880;12.630;2023-02-11T04:09:41;4.04;77.66
74968;SHT30;63523;51.880;12.630;2023-02-11T04:12:07;4.01;77.84
74968;SHT30;63523;51.880;12.630;2023-02-11T04:14:34;4.03;77.95
74968;SHT30;63523;51.880;12.630;2023-02-11T04:17:00;4.04;77.99
74968;SHT30;63523;51.880;12.630;2023-02-11T04:19:25;4.07;77.93
74968;SHT30;63523;51.880;12.630;2023-02-11T04:21:51;4.07;77.68
74968;SHT30;63523;51.880;12.630;2023-02-11T04:24:16;4.06;78.08
74968;SHT30;63523;51.880;12.630;2023-02-11T04:26:42;4.08;77.82
74968;SHT30;63523;51.880;12.630;2023-02-11T04:29:07;4.06;78.08
74968;SHT30;63523;51.880;12.630;2023-02-11T04:31:33;4.08;78.06
74968;SHT30;63523;51.880;12.630;2023-02-11T04:33:58;4.10;78.25
74968;SHT30;63523;51.880;12.630;2023-02-11T04:36:24;4.10;78.16
74968;SHT30;63523;51.880;12.630;2023-02-11T04:38:49;4.07;78.21
74968;SHT30;63523;51.880;12.630;2023-02-11T04:41:15;4.07;78.50
74968;SHT30;63523;51.880;12.630;2023-02-11T04:43:40;4.10;78.45
74968;SHT30;63523;51.880;12.630;2023-02-11T04:46:06;4.10;78.30
74968;SHT30;63523;51.880;12.630;2023-02-11T04:48:31;4.14;78.48
74968;SHT30;63523;51.880;12.630;2023-02-11T04:50:57;4.10;78.71
74968;SHT30;63523;51.880;12.630;2023-02-11T04:53:22;4.10;78.61
74968;SHT30;63523;51.880;12.630;2023-02-11T04:55:48;4.17;78.72
74968;SHT30;63523;51.880;12.630;2023-02-11T04:58:15;4.08;78.93
74968;SHT30;63523;51.880;12.630;2023-02-11T05:00:40;4.13;78.79
74968;SHT30;63523;51.880;12.630;2023-02-11T05:03:06;4.18;78.47
74968;SHT30;63523;51.880;12.630;2023-02-11T05:05:31;4.14;78.74
74968;SHT30;63523;51.880;12.630;2023-02-11T05:07:57;4.14;79.15
74968;SHT30;63523;51.880;12.630;2023-02-11T05:10:22;4.11;79.67
74968;SHT30;63523;51.880;12.630;2023-02-11T05:12:48;4.06;79.95
74968;SHT30;63523;51.880;12.630;2023-02-11T05:15:14;4.03;80.18
74968;SHT30;63523;51.880;12.630;2023-02-11T05:17:39;3.98;80.70
74968;SHT30;63523;51.880;12.630;2023-02-11T05:20:05;3.93;80.77
74968;SHT30;63523;51.880;12.630;2023-02-11T05:22:31;3.93;80.86
74968;SHT30;63523;51.880;12.630;2023-02-11T05:24:57;3.94;80.78
74968;SHT30;63523;51.880;12.630;2023-02-11T05:27:25;4.00;80.45
74968;SHT30;63523;51.880;12.630;2023-02-11T05:29:51;3.97;80.73
74968;SHT30;63523;51.880;12.630;2023-02-11T05:32:16;3.97;80.63
74968;SHT30;63523;51.880;12.630;2023-02-11T05:34:42;3.98;80.97
74968;SHT30;63523;51.880;12.630;2023-02-11T05:37:07;4.03;80.70
74968;SHT30;63523;51.880;12.630;2023-02-11T05:39:33;4.08;80.49
74968;SHT30;63523;51.880;12.630;2023-02-11T05:41:58;3.98;80.78
74968;SHT30;63523;51.880;12.630;2023-02-11T05:44:24;3.96;81.30
74968;SHT30;63523;51.880;12.630;2023-02-11T05:46:49;3.98;81.19
74968;SHT30;63523;51.880;12.630;2023-02-11T05:49:15;3.98;81.01
74968;SHT30;63523;51.880;12.630;2023-02-11T05:51:41;4.04;80.63
74968;SHT30;63523;51.880;12.630;2023-02-11T05:54:07;4.08;80.46
74968;SHT30;63523;51.880;12.630;2023-02-11T05:56:32;4.10;80.68
74968;SHT30;63523;51.880;12.630;2023-02-11T05:58:58;4.14;80.26
74968;SHT30;63523;51.880;12.630;2023-02-11T06:01:25;4.14;80.36
74968;SHT30;63523;51.880;12.630;2023-02-11T06:03:50;4.11;80.48
74968;SHT30;63523;51.880;12.630;2023-02-11T06:06:16;4.15;80.43
74968;SHT30;63523;51.880;12.630;2023-02-11T06:08:42;4.11;80.46
74968;SHT30;63523;51.880;12.630;2023-02-11T06:11:08;4.08;80.49
74968;SHT30;63523;51.880;12.630;2023-02-11T06:13:34;4.13;80.39
74968;SHT30;63523;51.880;12.630;2023-02-11T06:16:01;4.18;80.51
74968;SHT30;63523;51.880;12.630;2023-02-11T06:18:27;4.21;80.27
74968;SHT30;63523;51.880;12.630;2023-02-11T06:20:53;4.13;80.70
74968;SHT30;63523;51.880;12.630;2023-02-11T06:23:19;4.15;80.31
74968;SHT30;63523;51.880;12.630;2023-02-11T06:25:45;4.15;80.76
74968;SHT30;63523;51.880;12.630;2023-02-11T06:28:10;4.18;80.90
74968;SHT30;63523;51.880;12.630;2023-02-11T06:30:36;4.13;81.26
74968;SHT30;63523;51.880;12.630;2023-02-11T06:33:02;4.13;81.32
74968;SHT30;63523;51.880;12.630;2023-02-11T06:35:28;4.07;81.52
74968;SHT30;63523;51.880;12.630;2023-02-11T06:37:54;4.10;81.81
74968;SHT30;63523;51.880;12.630;2023-02-11T06:40:19;4.18;81.26
74968;SHT30;63523;51.880;12.630;2023-02-11T06:42:45;4.18;81.29
74968;SHT30;63523;51.880;12.630;2023-02-11T06:45:11;4.20;80.92
74968;SHT30;63523;51.880;12.630;2023-02-11T06:47:38;4.21;81.01
74968;SHT30;63523;51.880;12.630;2023-02-11T06:50:05;4.20;81.06
74968;SHT30;63523;51.880;12.630;2023-02-11T06:52:32;4.22;81.31
74968;SHT30;63523;51.880;12.630;2023-02-11T06:54:58;4.25;81.12
74968;SHT30;63523;51.880;12.630;2023-02-11T06:57:23;4.27;80.90
74968;SHT30;63523;51.880;12.630;2023-02-11T06:59:49;4.25;81.13
74968;SHT30;63523;51.880;12.630;2023-02-11T07:02:15;4.25;81.13
74968;SHT30;63523;51.880;12.630;2023-02-11T07:04:41;4.25;81.39
74968;SHT30;63523;51.880;12.630;2023-02-11T07:07:06;4.28;81.14
74968;SHT30;63523;51.880;12.630;2023-02-11T07:09:32;4.30;81.12
74968;SHT30;63523;51.880;12.630;2023-02-11T07:11:57;4.31;81.35
74968;SHT30;63523;51.880;12.630;2023-02-11T07:14:23;4.37;80.99
74968;SHT30;63523;51.880;12.630;2023-02-11T07:16:49;4.38;80.84
74968;SHT30;63523;51.880;12.630;2023-02-11T07:19:14;4.42;80.94
74968;SHT30;63523;51.880;12.630;2023-02-11T07:21:40;4.46;80.85
74968;SHT30;63523;51.880;12.630;2023-02-11T07:24:07;4.46;80.92
74968;SHT30;63523;51.880;12.630;2023-02-11T07:26:33;4.51;80.80
74968;SHT30;63523;51.880;12.630;2023-02-11T07:28:59;4.53;80.56
74968;SHT30;63523;51.880;12.630;2023-02-11T07:31:26;4.63;80.55
74968;SHT30;63523;51.880;12.630;2023-02-11T07:33:55;4.58;80.79
74968;SHT30;63523;51.880;12.630;2023-02-11T07:36:21;4.63;80.62
74968;SHT30;63523;51.880;12.630;2023-02-11T07:38:47;4.66;80.60
74968;SHT30;63523;51.880;12.630;2023-02-11T07:41:16;4.69;80.79
74968;SHT30;63523;51.880;12.630;2023-02-11T07:43:42;4.80;80.46
74968;SHT30;63523;51.880;12.630;2023-02-11T07:46:20;4.89;80.21
74968;SHT30;63523;51.880;12.630;2023-02-11T07:48:46;4.97;80.28
74968;SHT30;63523;51.880;12.630;2023-02-11T07:53:45;4.96;80.49
74968;SHT30;63523;51.880;12.630;2023-02-11T07:56:12;5.04;80.29
74968;SHT30;63523;51.880;12.630;2023-02-11T07:58:38;5.10;80.41
74968;SHT30;63523;51.880;12.630;2023-02-11T08:01:09;5.15;80.39
74968;SHT30;63523;51.880;12.630;2023-02-11T08:03:37;5.18;80.40
74968;SHT30;63523;51.880;12.630;2023-02-11T08:06:13;5.23;80.60
74968;SHT30;63523;51.880;12.630;2023-02-11T08:08:39;5.35;80.20
74968;SHT30;63523;51.880;12.630;2023-02-11T08:11:18;5.35;80.33
74968;SHT30;63523;51.880;12.630;2023-02-11T08:13:43;5.41;80.67
74968;SHT30;63523;51.880;12.630;2023-02-11T08:16:17;5.51;80.40
74968;SHT30;63523;51.880;12.630;2023-02-11T08:18:43;5.65;80.06
74968;SHT30;63523;51.880;12.630;2023-02-11T08:21:09;5.79;79.62
74968;SHT30;63523;51.880;12.630;2023-02-11T08:23:36;5.91;79.01
74968;SHT30;63523;51.880;12.630;2023-02-11T08:26:03;6.00;78.53
74968;SHT30;63523;51.880;12.630;2023-02-11T08:28:29;5.97;78.77
74968;SHT30;63523;51.880;12.630;2023-02-11T08:30:55;6.01;78.34
74968;SHT30;63523;51.880;12.630;2023-02-11T08:33:20;6.08;78.70
74968;SHT30;63523;51.880;12.630;2023-02-11T08:35:46;6.11;78.24
74968;SHT30;63523;51.880;12.630;2023-02-11T08:38:11;6.13;78.49
74968;SHT30;63523;51.880;12.630;2023-02-11T08:40:37;6.18;78.28
74968;SHT30;63523;51.880;12.630;2023-02-11T08:43:02;6.26;78.12
74968;SHT30;63523;51.880;12.630;2023-02-11T08:45:28;6.31;77.91
74968;SHT30;63523;51.880;12.630;2023-02-11T08:47:53;6.38;77.51
74968;SHT30;63523;51.880;12.630;2023-02-11T08:50:19;6.34;77.80
74968;SHT30;63523;51.880;12.630;2023-02-11T08:52:44;6.38;77.91
74968;SHT30;63523;51.880;12.630;2023-02-11T08:55:10;6.36;77.84
74968;SHT30;63523;51.880;12.630;2023-02-11T08:57:36;6.46;77.49
74968;SHT30;63523;51.880;12.630;2023-02-11T09:00:02;6.49;77.80
74968;SHT30;63523;51.880;12.630;2023-02-11T09:02:28;6.57;77.65
74968;SHT30;63523;51.880;12.630;2023-02-11T09:04:54;6.53;77.83
74968;SHT30;63523;51.880;12.630;2023-02-11T09:07:19;6.50;77.81
74968;SHT30;63523;51.880;12.630;2023-02-11T09:09:45;6.52;77.79
74968;SHT30;63523;51.880;12.630;2023-02-11T09:12:10;6.45;77.81
74968;SHT30;63523;51.880;12.630;2023-02-11T09:14:36;6.46;77.81
74968;SHT30;63523;51.880;12.630;2023-02-11T09:17:02;6.48;77.93
74968;SHT30;63523;51.880;12.630;2023-02-11T09:19:28;6.57;77.94
74968;SHT30;63523;51.880;12.630;2023-02-11T09:21:53;6.66;77.52
74968;SHT30;63523;51.880;12.630;2023-02-11T09:24:19;6.77;77.18
74968;SHT30;63523;51.880;12.630;2023-02-11T09:26:44;6.84;76.87
74968;SHT30;63523;51.880;12.630;2023-02-11T09:29:10;6.79;77.08
74968;SHT30;63523;51.880;12.630;2023-02-11T09:31:36;6.76;77.42
74968;SHT30;63523;51.880;12.630;2023-02-11T09:34:04;6.80;76.52
74968;SHT30;63523;51.880;12.630;2023-02-11T09:36:33;6.70;76.86
74968;SHT30;63523;51.880;12.630;2023-02-11T09:39:02;6.65;77.06
74968;SHT30;63523;51.880;12.630;2023-02-11T09:41:51;6.57;77.68
74968;SHT30;63523;51.880;12.630;2023-02-11T09:44:22;6.80;76.92
74968;SHT30;63523;51.880;12.630;2023-02-11T09:47:01;6.77;77.07
74968;SHT30;63523;51.880;12.630;2023-02-11T09:49:48;6.90;75.93
74968;SHT30;63523;51.880;12.630;2023-02-11T09:54:59;6.70;76.98
74968;SHT30;63523;51.880;12.630;2023-02-11T09:57:30;6.70;76.82
74968;SHT30;63523;51.880;12.630;2023-02-11T09:59:57;6.80;76.56
74968;SHT30;63523;51.880;12.630;2023-02-11T10:02:31;6.81;76.65
74968;SHT30;63523;51.880;12.630;2023-02-11T10:05:12;6.79;76.64
74968;SHT30;63523;51.880;12.630;2023-02-11T10:10:51;6.73;76.90
74968;SHT30;63523;51.880;12.630;2023-02-11T10:22:20;6.73;77.45
74968;SHT30;63523;51.880;12.630;2023-02-11T10:24:54;6.76;77.69
74968;SHT30;63523;51.880;12.630;2023-02-11T10:27:30;6.93;77.05
74968;SHT30;63523;51.880;12.630;2023-02-11T10:30:00;6.94;76.93
74968;SHT30;63523;51.880;12.630;2023-02-11T10:32:38;6.86;77.20
74968;SHT30;63523;51.880;12.630;2023-02-11T10:35:18;6.83;77.54
74968;SHT30;63523;51.880;12.630;2023-02-11T10:37:46;6.90;77.41
74968;SHT30;63523;51.880;12.630;2023-02-11T10:40:14;6.90;77.37
74968;SHT30;63523;51.880;12.630;2023-02-11T10:42:44;6.97;77.61
74968;SHT30;63523;51.880;12.630;2023-02-11T10:45:20;6.91;77.50
74968;SHT30;63523;51.880;12.630;2023-02-11T10:47:46;6.91;77.91
74968;SHT30;63523;51.880;12.630;2023-02-11T10:50:38;7.04;77.45
74968;SHT30;63523;51.880;12.630;2023-02-11T10:53:16;7.05;77.96
74968;SHT30;63523;51.880;12.630;2023-02-11T10:56:03;7.28;77.18
74968;SHT30;63523;51.880;12.630;2023-02-11T10:58:34;7.42;76.73
74968;SHT30;63523;51.880;12.630;2023-02-11T11:01:01;7.53;76.35
74968;SHT30;63523;51.880;12.630;2023-02-11T11:03:31;7.62;76.02
74968;SHT30;63523;51.880;12.630;2023-02-11T11:06:00;7.56;76.21
74968;SHT30;63523;51.880;12.630;2023-02-11T11:08:41;7.45;76.81
74968;SHT30;63523;51.880;12.630;2023-02-11T11:11:13;7.35;76.94
74968;SHT30;63523;51.880;12.630;2023-02-11T11:13:57;7.28;77.49
74968;SHT30;63523;51.880;12.630;2023-02-11T11:16:39;7.28;77.64
74968;SHT30;63523;51.880;12.630;2023-02-11T11:19:21;7.42;77.43
74968;SHT30;63523;51.880;12.630;2023-02-11T11:21:54;7.39;77.80
74968;SHT30;63523;51.880;12.630;2023-02-11T11:26:58;7.42;78.28
74968;SHT30;63523;51.880;12.630;2023-02-11T11:29:47;7.46;78.06
74968;SHT30;63523;51.880;12.630;2023-02-11T11:32:24;7.46;78.42
74968;SHT30;63523;51.880;12.630;2023-02-11T11:34:57;7.39;78.66
74968;SHT30;63523;51.880;12.630;2023-02-11T11:42:25;7.46;78.93
74968;SHT30;63523;51.880;12.630;2023-02-11T11:45:01;7.58;78.86
74968;SHT30;63523;51.880;12.630;2023-02-11T11:47:38;7.71;78.84
74968;SHT30;63523;51.880;12.630;2023-02-11T11:50:33;7.87;78.37
74968;SHT30;63523;51.880;12.630;2023-02-11T11:58:16;7.79;79.29
74968;SHT30;63523;51.880;12.630;2023-02-11T12:01:00;7.79;79.51
74968;SHT30;63523;51.880;12.630;2023-02-11T12:19:46;8.46;78.35
74968;SHT30;63523;51.880;12.630;2023-02-11T12:24:59;8.67;78.22
74968;SHT30;63523;51.880;12.630;2023-02-11T12:33:33;8.67;78.34
74968;SHT30;63523;51.880;12.630;2023-02-11T12:36:10;8.81;77.76
74968;SHT30;63523;51.880;12.630;2023-02-11T12:45:12;8.71;78.44
74968;SHT30;63523;51.880;12.630;2023-02-11T12:50:52;8.67;78.51
74968;SHT30;63523;51.880;12.630;2023-02-11T12:56:22;8.59;79.00
74968;SHT30;63523;51.880;12.630;2023-02-11T12:58:53;8.57;79.29
74968;SHT30;63523;51.880;12.630;2023-02-11T13:01:38;8.62;79.01
74968;SHT30;63523;51.880;12.630;2023-02-11T13:04:05;8.52;79.47
74968;SHT30;63523;51.880;12.630;2023-02-11T13:06:39;8.49;79.54
74968;SHT30;63523;51.880;12.630;2023-02-11T13:09:12;8.38;80.02
74968;SHT30;63523;51.880;12.630;2023-02-11T13:11:45;8.22;81.08
74968;SHT30;63523;51.880;12.630;2023-02-11T13:14:28;8.41;80.28
74968;SHT30;63523;51.880;12.630;2023-02-11T13:16:55;8.52;80.07
74968;SHT30;63523;51.880;12.630;2023-02-11T13:25:06;8.46;80.41
74968;SHT30;63523;51.880;12.630;2023-02-11T13:27:47;8.42;80.42
74968;SHT30;63523;51.880;12.630;2023-02-11T13:30:30;8.52;80.17
74968;SHT30;63523;51.880;12.630;2023-02-11T13:37:52;8.38;80.56
74968;SHT30;63523;51.880;12.630;2023-02-11T13:42:58;8.48;80.38
74968;SHT30;63523;51.880;12.630;2023-02-11T13:47:56;8.56;80.20
74968;SHT30;63523;51.880;12.630;2023-02-11T13:50:24;8.49;80.57
74968;SHT30;63523;51.880;12.630;2023-02-11T13:52:58;8.64;79.91
74968;SHT30;63523;51.880;12.630;2023-02-11T13:55:26;8.70;79.94
74968;SHT30;63523;51.880;12.630;2023-02-11T14:06:25;8.63;80.34
74968;SHT30;63523;51.880;12.630;2023-02-11T14:09:35;8.60;80.31
74968;SHT30;63523;51.880;12.630;2023-02-11T14:12:22;8.63;80.07
74968;SHT30;63523;51.880;12.630;2023-02-11T14:15:17;8.71;79.92
74968;SHT30;63523;51.880;12.630;2023-02-11T14:17:43;8.74;79.79
74968;SHT30;63523;51.880;12.630;2023-02-11T14:20:39;8.62;80.22
74968;SHT30;63523;51.880;12.630;2023-02-11T14:23:21;8.69;80.13
74968;SHT30;63523;51.880;12.630;2023-02-11T14:25:56;8.76;80.01
74968;SHT30;63523;51.880;12.630;2023-02-11T14:28:25;8.67;80.11
74968;SHT30;63523;51.880;12.630;2023-02-11T14:31:02;8.63;80.23
74968;SHT30;63523;51.880;12.630;2023-02-11T14:36:49;8.60;80.43
74968;SHT30;63523;51.880;12.630;2023-02-11T14:39:40;8.63;80.63
74968;SHT30;63523;51.880;12.630;2023-02-11T14:42:19;8.74;79.78
74968;SHT30;63523;51.880;12.630;2023-02-11T14:44:51;8.77;79.78
74968;SHT30;63523;51.880;12.630;2023-02-11T14:47:22;8.69;80.43
74968;SHT30;63523;51.880;12.630;2023-02-11T14:49:48;8.81;80.01
74968;SHT30;63523;51.880;12.630;2023-02-11T14:52:23;8.71;80.16
74968;SHT30;63523;51.880;12.630;2023-02-11T14:54:53;8.66;80.23
74968;SHT30;63523;51.880;12.630;2023-02-11T14:57:21;8.66;80.41
74968;SHT30;63523;51.880;12.630;2023-02-11T14:59:57;8.83;79.86
74968;SHT30;63523;51.880;12.630;2023-02-11T15:02:28;8.73;80.23
74968;SHT30;63523;51.880;12.630;2023-02-11T15:05:13;8.81;79.98
74968;SHT30;63523;51.880;12.630;2023-02-11T15:07:55;8.92;79.57
74968;SHT30;63523;51.880;12.630;2023-02-11T15:12:57;8.77;79.94
74968;SHT30;63523;51.880;12.630;2023-02-11T15:15:24;8.73;80.18
74968;SHT30;63523;51.880;12.630;2023-02-11T15:17:50;8.73;80.32
74968;SHT30;63523;51.880;12.630;2023-02-11T15:20:24;8.70;80.52
74968;SHT30;63523;51.880;12.630;2023-02-11T15:22:57;8.63;80.82
74968;SHT30;63523;51.880;12.630;2023-02-11T15:25:24;8.63;80.94
74968;SHT30;63523;51.880;12.630;2023-02-11T15:27:54;8.57;81.27
74968;SHT30;63523;51.880;12.630;2023-02-11T15:32:54;8.54;81.34
74968;SHT30;63523;51.880;12.630;2023-02-11T15:35:32;8.67;81.07
74968;SHT30;63523;51.880;12.630;2023-02-11T15:37:59;8.52;81.48
74968;SHT30;63523;51.880;12.630;2023-02-11T15:40:27;8.56;81.42
74968;SHT30;63523;51.880;12.630;2023-02-11T15:43:06;8.53;81.58
74968;SHT30;63523;51.880;12.630;2023-02-11T15:48:22;8.62;80.97
74968;SHT30;63523;51.880;12.630;2023-02-11T15:50:56;8.63;81.19
74968;SHT30;63523;51.880;12.630;2023-02-11T15:56:12;8.70;80.96
74968;SHT30;63523;51.880;12.630;2023-02-11T15:58:41;8.57;81.48
74968;SHT30;63523;51.880;12.630;2023-02-11T16:01:08;8.62;81.44
74968;SHT30;63523;51.880;12.630;2023-02-11T16:03:34;8.48;82.00
74968;SHT30;63523;51.880;12.630;2023-02-11T16:11:33;8.39;82.16
74968;SHT30;63523;51.880;12.630;2023-02-11T16:14:00;8.53;82.16
74968;SHT30;63523;51.880;12.630;2023-02-11T16:16:32;8.52;81.82
74968;SHT30;63523;51.880;12.630;2023-02-11T16:19:00;8.62;81.73
74968;SHT30;63523;51.880;12.630;2023-02-11T16:21:30;8.56;81.81
74968;SHT30;63523;51.880;12.630;2023-02-11T16:23:58;8.57;81.71
74968;SHT30;63523;51.880;12.630;2023-02-11T16:26:33;8.56;81.67
74968;SHT30;63523;51.880;12.630;2023-02-11T16:29:15;8.63;81.35
74968;SHT30;63523;51.880;12.630;2023-02-11T16:31:43;8.59;81.53
74968;SHT30;63523;51.880;12.630;2023-02-11T16:34:21;8.56;82.06
74968;SHT30;63523;51.880;12.630;2023-02-11T16:36:47;8.52;82.22
74968;SHT30;63523;51.880;12.630;2023-02-11T16:39:14;8.74;81.60
74968;SHT30;63523;51.880;12.630;2023-02-11T16:41:41;8.69;81.87
74968;SHT30;63523;51.880;12.630;2023-02-11T16:44:07;8.74;81.38
74968;SHT30;63523;51.880;12.630;2023-02-11T16:46:32;8.70;81.43
74968;SHT30;63523;51.880;12.630;2023-02-11T16:49:16;8.79;81.63
74968;SHT30;63523;51.880;12.630;2023-02-11T16:51:43;8.74;81.80
74968;SHT30;63523;51.880;12.630;2023-02-11T16:54:13;8.71;81.73
74968;SHT30;63523;51.880;12.630;2023-02-11T16:56:39;8.67;82.13
74968;SHT30;63523;51.880;12.630;2023-02-11T16:59:05;8.76;81.67
74968;SHT30;63523;51.880;12.630;2023-02-11T17:01:31;8.80;81.53
74968;SHT30;63523;51.880;12.630;2023-02-11T17:03:57;8.83;81.57
74968;SHT30;63523;51.880;12.630;2023-02-11T17:06:23;8.70;82.12
74968;SHT30;63523;51.880;12.630;2023-02-11T17:08:48;8.70;82.08
74968;SHT30;63523;51.880;12.630;2023-02-11T17:11:14;8.70;82.09
74968;SHT30;63523;51.880;12.630;2023-02-11T17:13:44;8.64;81.91
74968;SHT30;63523;51.880;12.630;2023-02-11T17:16:19;8.60;82.40
74968;SHT30;63523;51.880;12.630;2023-02-11T17:18:45;8.69;82.20
74968;SHT30;63523;51.880;12.630;2023-02-11T17:21:11;8.73;81.60
74968;SHT30;63523;51.880;12.630;2023-02-11T17:23:37;8.53;82.62
74968;SHT30;63523;51.880;12.630;2023-02-11T17:26:03;8.59;82.59
74968;SHT30;63523;51.880;12.630;2023-02-11T17:28:29;8.77;82.16
74968;SHT30;63523;51.880;12.630;2023-02-11T17:30:57;8.71;82.37
74968;SHT30;63523;51.880;12.630;2023-02-11T17:33:22;8.87;82.07
74968;SHT30;63523;51.880;12.630;2023-02-11T17:35:48;8.69;82.57
74968;SHT30;63523;51.880;12.630;2023-02-11T17:38:13;8.73;82.22
74968;SHT30;63523;51.880;12.630;2023-02-11T17:40:39;8.73;82.16
74968;SHT30;63523;51.880;12.630;2023-02-11T17:43:04;8.57;82.60
74968;SHT30;63523;51.880;12.630;2023-02-11T17:45:30;8.60;82.76
74968;SHT30;63523;51.880;12.630;2023-02-11T17:47:55;8.62;82.74
74968;SHT30;63523;51.880;12.630;2023-02-11T17:50:21;8.56;82.91
74968;SHT30;63523;51.880;12.630;2023-02-11T17:52:46;8.59;83.26
74968;SHT30;63523;51.880;12.630;2023-02-11T17:55:12;8.73;82.59
74968;SHT30;63523;51.880;12.630;2023-02-11T17:57:37;8.74;83.02
74968;SHT30;63523;51.880;12.630;2023-02-11T18:00:05;8.66;82.92
74968;SHT30;63523;51.880;12.630;2023-02-11T18:02:32;8.57;83.26